Armstrong, Missouri
Current Conditions -  °F | °C
As of 6:55 AM on Friday 31 Oct 2014 (Local Time) from KVER Reporting Station
Overcast Overcast  
Wind Chill: 32°   Ceiling: 3000
Heat Index: 42°   Visibility: 10mi
Dew Point: 28°   Wind: 23mph
Humidity: 59%   Direction: 350°N
Pressure: 30.3"   Gusts: 32mph
Location:  39.27°N, 92.7°W
Report Text: KVER 311155Z AUTO 35020G28KT 10SM OVC030 05/M02 A3030 RMK AO2 7//// T00541020 10100 20054
Loading
Personal Weather Stations






























Interactive Weather Map
Tropical Storm Tracking
New forecast layout! Learn more

10-Day Weather Forecast

Advertisements
Track Severe Weather on mobile